Time;durP1;ratioP1;P1;durP2;ratioP2;P2;SDS_P1;SDS_P2;PMS_P1;PMS_P2;Temp;Humidity;BMP_temperature;BMP_pressure;BME280_temperature;BME280_humidity;BME280_pressure;Samples;Min_cycle;Max_cycle;Signal;HPM_P1;HPM_P2
2021/07/22 00:01:35;;;;;;;1999.90;999.90;;;;;;;17.65;42.26;101762.06;4827021;29;96932;-73
2021/07/22 00:04:04;;;;;;;1999.90;999.90;;;;;;;17.66;42.14;101754.88;4830593;29;97268;-72
2021/07/22 00:06:31;;;;;;;1999.90;999.90;;;;;;;17.64;42.21;101754.88;4827555;29;97782;-72
2021/07/22 00:09:01;;;;;;;1999.90;999.90;;;;;;;17.66;42.17;101753.09;4858369;28;99741;-72
2021/07/22 00:11:28;;;;;;;1999.90;999.90;;;;;;;17.74;42.04;101750.44;4828595;29;97515;-72
2021/07/22 00:13:56;;;;;;;1999.90;999.90;;;;;;;17.70;42.16;101745.94;4828243;29;97416;-73
2021/07/22 00:16:24;;;;;;;1999.90;999.90;;;;;;;17.71;42.16;101753.13;4827667;29;97708;-72
2021/07/22 00:18:52;;;;;;;1999.90;999.90;;;;;;;17.71;42.02;101756.69;4829479;29;97517;-72
2021/07/22 00:21:20;;;;;;;1999.90;999.90;;;;;;;17.69;42.06;101750.41;4829282;29;96855;-73
2021/07/22 00:23:48;;;;;;;1999.90;999.90;;;;;;;17.70;41.93;101746.84;4830254;29;97203;-73
2021/07/22 00:26:17;;;;;;;1999.90;999.90;;;;;;;17.72;41.93;101749.53;4842181;29;98877;-72
2021/07/22 00:28:44;;;;;;;1999.90;999.90;;;;;;;17.72;42.10;101749.53;4828926;29;97166;-72
2021/07/22 00:31:12;;;;;;;1999.90;999.90;;;;;;;17.75;42.17;101746.84;4827964;29;96805;-72
2021/07/22 00:33:40;;;;;;;1999.90;999.90;;;;;;;17.75;42.09;101746.84;4829387;29;97229;-72
2021/07/22 00:36:08;;;;;;;1999.90;999.90;;;;;;;17.72;42.10;101745.06;4828052;29;98661;-72
2021/07/22 00:38:38;;;;;;;1999.90;999.90;;;;;;;17.71;41.85;101747.75;4828781;29;97812;-72
2021/07/22 00:41:10;;;;;;;1999.90;999.90;;;;;;;17.69;41.91;101747.72;4818688;29;97412;-72
2021/07/22 00:43:41;;;;;;;1999.90;999.90;;;;;;;17.68;41.86;101754.00;4828485;29;96823;-72
2021/07/22 00:46:09;;;;;;;1999.90;999.90;;;;;;;17.68;41.99;101748.63;4811750;29;100548;-72
2021/07/22 00:48:37;;;;;;;1999.90;999.90;;;;;;;17.68;42.27;101750.41;4843799;29;97712;-73
2021/07/22 00:51:06;;;;;;;1999.90;999.90;;;;;;;17.67;42.75;101744.13;4827743;29;97182;-73
2021/07/22 00:53:35;;;;;;;1999.90;999.90;;;;;;;17.67;43.39;101746.84;4826426;29;96829;-73
2021/07/22 00:56:04;;;;;;;1999.90;999.90;;;;;;;17.69;43.89;101749.53;4825889;29;98709;-73
2021/07/22 00:58:33;;;;;;;1999.90;999.90;;;;;;;17.69;44.67;101749.53;4859268;28;98871;-73
2021/07/22 01:01:03;;;;;;;1999.90;999.90;;;;;;;17.68;45.00;101747.72;4828702;29;97388;-73
2021/07/22 01:03:32;;;;;;;1999.90;999.90;;;;;;;17.67;44.93;101754.00;4827868;29;96994;-73
2021/07/22 01:06:00;;;;;;;1999.90;999.90;;;;;;;17.66;44.55;101739.63;4828112;29;97866;-73
2021/07/22 01:08:28;;;;;;;1999.90;999.90;;;;;;;17.64;44.37;101746.78;4828521;29;97578;-74
2021/07/22 01:11:16;;;;;;;1999.90;999.90;;;;;;;17.64;44.07;101741.41;4826045;29;97572;-73
2021/07/22 01:13:44;;;;;;;1999.90;999.90;;;;;;;17.60;43.50;101742.25;4842529;29;96893;-73
2021/07/22 01:16:14;;;;;;;1999.90;999.90;;;;;;;17.61;43.34;101737.78;4858094;28;99087;-73
2021/07/22 01:18:44;;;;;;;1999.90;999.90;;;;;;;17.59;43.34;101742.25;4842622;28;100777;-73
2021/07/22 01:21:14;;;;;;;1999.90;999.90;;;;;;;17.57;43.13;101731.47;4842317;28;97036;-72
2021/07/22 01:23:42;;;;;;;1999.90;999.90;;;;;;;17.57;43.17;101734.19;4827518;29;98045;-73
2021/07/22 01:26:45;;;;;;;1999.90;999.90;;;;;;;17.57;43.34;101738.66;4791285;29;98177;-73
2021/07/22 01:29:27;;;;;;;1999.90;999.90;;;;;;;17.55;43.47;101740.44;4814067;29;97913;-72
2021/07/22 01:31:55;;;;;;;1999.90;999.90;;;;;;;17.54;43.56;101742.25;4857692;28;97637;-72
2021/07/22 01:34:23;;;;;;;1999.90;999.90;;;;;;;17.52;43.67;101743.09;4827770;29;98054;-72
2021/07/22 01:36:52;;;;;;;1999.90;999.90;;;;;;;17.48;43.63;101736.78;4811729;29;101244;-72
2021/07/22 01:39:20;;;;;;;1999.90;999.90;;;;;;;17.47;43.94;101736.78;4816977;29;99520;-73
2021/07/22 01:41:47;;;;;;;1999.90;999.90;;;;;;;17.46;43.87;101735.88;4842299;29;97814;-73
2021/07/22 01:44:16;;;;;;;1999.90;999.90;;;;;;;17.43;43.85;101737.66;4858493;28;97466;-72
2021/07/22 01:46:45;;;;;;;1999.90;999.90;;;;;;;17.43;44.03;101745.72;4857405;28;97001;-73
2021/07/22 01:49:13;;;;;;;1999.90;999.90;;;;;;;17.42;44.02;101733.16;4825655;29;97022;-73
2021/07/22 01:51:40;;;;;;;1999.90;999.90;;;;;;;17.41;44.01;101726.88;4828337;29;96977;-73
2021/07/22 01:54:11;;;;;;;1999.90;999.90;;;;;;;17.41;44.26;101724.19;4827252;29;96920;-73
2021/07/22 01:56:40;;;;;;;1999.90;999.90;;;;;;;17.41;44.37;101726.88;4840189;29;99756;-73
2021/07/22 01:59:08;;;;;;;1999.90;999.90;;;;;;;17.39;44.36;101725.06;4827153;29;97883;-72
2021/07/22 02:01:36;;;;;;;1999.90;999.90;;;;;;;17.37;44.26;101726.78;4825387;29;99875;-72
2021/07/22 02:04:23;;;;;;;1999.90;999.90;;;;;;;17.33;44.16;101720.50;4856527;28;97414;-74
2021/07/22 02:06:54;;;;;;;1999.90;999.90;;;;;;;17.33;44.47;101723.19;4810301;29;100723;-74
2021/07/22 02:09:23;;;;;;;1999.90;999.90;;;;;;;17.34;44.44;101726.78;4858430;28;97620;-73
2021/07/22 02:11:53;;;;;;;1999.90;999.90;;;;;;;17.34;44.83;101725.00;4841628;29;97313;-75
2021/07/22 02:14:21;;;;;;;1999.90;999.90;;;;;;;17.34;44.94;101724.09;4840771;29;99670;-74
2021/07/22 02:16:51;;;;;;;1999.90;999.90;;;;;;;17.33;44.94;101725.00;4826694;29;99556;-74
2021/07/22 02:19:20;;;;;;;1999.90;999.90;;;;;;;17.31;44.87;101729.47;4826334;29;99241;-75
2021/07/22 02:21:50;;;;;;;1999.90;999.90;;;;;;;17.31;45.20;101727.63;4842023;29;97270;-74
2021/07/22 02:24:19;;;;;;;1999.90;999.90;;;;;;;17.30;45.01;101727.63;4856753;28;97573;-74
2021/07/22 02:27:17;;;;;;;1999.90;999.90;;;;;;;17.30;45.65;101725.84;4838790;28;97910;-73
2021/07/22 02:29:46;;;;;;;1999.90;999.90;;;;;;;17.31;45.86;101734.84;4825691;29;98019;-73
2021/07/22 02:32:14;;;;;;;1999.90;999.90;;;;;;;17.29;46.34;101724.03;4842560;29;97111;-73
2021/07/22 02:34:42;;;;;;;1999.90;999.90;;;;;;;17.28;46.50;101730.31;4841710;29;97493;-73
2021/07/22 02:37:30;;;;;;;1999.90;999.90;;;;;;;17.29;46.64;101728.53;4826172;29;98003;-73
2021/07/22 02:40:07;;;;;;;1999.90;999.90;;;;;;;17.29;46.73;101726.72;4826367;29;97792;-72
2021/07/22 02:42:36;;;;;;;1999.90;999.90;;;;;;;17.27;46.67;101724.94;4827274;29;96867;-74
2021/07/22 02:45:13;;;;;;;1999.90;999.90;;;;;;;17.23;46.82;101732.06;4827194;29;97300;-73
2021/07/22 02:47:44;;;;;;;1999.90;999.90;;;;;;;17.23;46.59;101724.00;4825503;29;97646;-73
2021/07/22 02:50:12;;;;;;;1999.90;999.90;;;;;;;17.23;46.30;101729.38;4857498;28;97660;-73
2021/07/22 02:52:44;;;;;;;1999.90;999.90;;;;;;;17.20;46.33;101725.78;4825193;29;97708;-73
2021/07/22 02:55:13;;;;;;;1999.90;999.90;;;;;;;17.19;46.44;101732.94;4843667;29;96969;-73
2021/07/22 02:57:43;;;;;;;1999.90;999.90;;;;;;;17.20;46.41;101736.53;4812784;29;97895;-73
2021/07/22 03:00:12;;;;;;;1999.90;999.90;;;;;;;17.19;46.28;101737.41;4860303;28;98668;-73
2021/07/22 03:02:43;;;;;;;1999.90;999.90;;;;;;;17.18;46.70;101732.91;4859744;28;97286;-73
2021/07/22 03:05:12;;;;;;;1999.90;999.90;;;;;;;17.16;46.67;101738.28;4838201;28;97221;-73
2021/07/22 03:07:44;;;;;;;1999.90;999.90;;;;;;;17.14;46.80;101737.38;4814178;29;98926;-73
2021/07/22 03:10:14;;;;;;;1999.90;999.90;;;;;;;17.14;46.79;101737.38;4829561;29;97829;-73
2021/07/22 03:12:43;;;;;;;1999.90;999.90;;;;;;;17.13;46.72;101740.94;4845041;29;98044;-73
2021/07/22 03:15:12;;;;;;;1999.90;999.90;;;;;;;17.13;46.70;101730.16;4832945;29;98307;-73
2021/07/22 03:17:47;;;;;;;1999.90;999.90;;;;;;;17.12;46.69;101738.22;4828780;29;97625;-73
2021/07/22 03:20:17;;;;;;;1999.90;999.90;;;;;;;17.09;46.83;101740.00;4860733;28;98316;-73
2021/07/22 03:22:49;;;;;;;1999.90;999.90;;;;;;;17.10;46.82;101735.53;4860259;28;97766;-73
2021/07/22 03:25:27;;;;;;;1999.90;999.90;;;;;;;17.08;46.87;101742.69;4828803;29;97234;-73
2021/07/22 03:28:15;;;;;;;1999.90;999.90;;;;;;;17.08;46.83;101742.69;4829120;29;100414;-73
2021/07/22 03:30:51;;;;;;;1999.90;999.90;;;;;;;17.07;46.79;101740.91;4843932;29;97810;-73
2021/07/22 03:33:35;;;;;;;1999.90;999.90;;;;;;;17.06;47.01;101741.75;4813708;29;97097;-73
2021/07/22 03:36:13;;;;;;;1999.90;999.90;;;;;;;17.06;46.71;101736.38;4844985;28;97149;-74
2021/07/22 03:38:44;;;;;;;1999.90;999.90;;;;;;;17.05;46.63;101739.97;4828396;29;97127;-73
2021/07/22 03:41:47;;;;;;;1999.90;999.90;;;;;;;17.03;46.65;101739.97;4818617;29;100841;-73
2021/07/22 03:44:46;;;;;;;1999.90;999.90;;;;;;;17.01;46.76;101736.34;4823156;29;97989;-73
2021/07/22 03:47:18;;;;;;;1999.90;999.90;;;;;;;17.00;46.91;101728.25;4833476;28;96897;-74
2021/07/22 03:49:49;;;;;;;1999.90;999.90;;;;;;;16.99;46.89;101732.75;4843227;29;99022;-73
2021/07/22 03:52:35;;;;;;;1999.90;999.90;;;;;;;16.98;46.80;101735.44;4843746;29;99266;-73
2021/07/22 03:55:04;;;;;;;1999.90;999.90;;;;;;;16.98;47.27;101732.75;4827327;29;97112;-73
2021/07/22 03:57:35;;;;;;;1999.90;999.90;;;;;;;16.99;47.33;101727.38;4842979;29;97543;-72
2021/07/22 04:00:06;;;;;;;1999.90;999.90;;;;;;;16.98;47.42;101730.06;4830242;28;99893;-75
2021/07/22 04:02:42;;;;;;;1999.90;999.90;;;;;;;16.98;47.49;101732.75;4821531;29;98624;-73
2021/07/22 04:05:13;;;;;;;1999.90;999.90;;;;;;;16.97;47.72;101729.13;4823243;29;97710;-73
2021/07/22 04:07:42;;;;;;;1999.90;999.90;;;;;;;16.96;47.67;101732.69;4836844;28;98054;-73
2021/07/22 04:10:21;;;;;;;1999.90;999.90;;;;;;;16.98;48.04;101724.66;4827090;29;97078;-72
2021/07/22 04:13:05;;;;;;;1999.90;999.90;;;;;;;16.99;47.99;101718.38;4841830;29;98696;-72
2021/07/22 04:16:04;;;;;;;1999.90;999.90;;;;;;;16.98;47.86;101721.97;4824044;29;97059;-72
2021/07/22 04:18:42;;;;;;;1999.90;999.90;;;;;;;17.00;48.21;101720.19;4827733;29;98148;-73
2021/07/22 04:21:22;;;;;;;1999.90;999.90;;;;;;;16.98;48.18;101722.84;4842904;29;99779;-72
2021/07/22 04:24:13;;;;;;;1999.90;999.90;;;;;;;16.98;47.98;101719.28;4842899;29;100978;-72
2021/07/22 04:27:08;;;;;;;1999.90;999.90;;;;;;;16.99;47.89;101726.47;4820911;29;98802;-72
2021/07/22 04:30:00;;;;;;;1999.90;999.90;;;;;;;16.98;47.78;101730.06;4825248;29;97178;-73
2021/07/22 04:32:38;;;;;;;1999.90;999.90;;;;;;;16.99;47.87;101735.44;4810229;29;96997;-73
2021/07/22 04:35:17;;;;;;;1999.90;999.90;;;;;;;16.99;47.67;101732.75;4814257;29;100973;-73
2021/07/22 04:38:06;;;;;;;1999.90;999.90;;;;;;;16.99;47.62;101737.22;4810641;29;97447;-74
2021/07/22 04:40:53;;;;;;;1999.90;999.90;;;;;;;16.99;47.49;101729.16;4828704;29;97635;-73
2021/07/22 04:43:41;;;;;;;1999.90;999.90;;;;;;;16.98;47.56;101730.06;4830484;28;98740;-73
2021/07/22 04:46:41;;;;;;;1999.90;999.90;;;;;;;16.97;47.71;101734.50;4857698;28;99542;-73
2021/07/22 04:49:26;;;;;;;1999.90;999.90;;;;;;;16.98;47.96;101738.13;4811765;29;96958;-73
2021/07/22 04:52:20;;;;;;;1999.90;999.90;;;;;;;17.00;47.70;101733.63;4825766;29;97619;-74
2021/07/22 04:55:06;;;;;;;1999.90;999.90;;;;;;;16.99;47.31;101737.22;4842377;29;100256;-73
2021/07/22 04:57:34;;;;;;;1999.90;999.90;;;;;;;16.98;47.32;101735.44;4856119;28;100705;-73
2021/07/22 05:00:04;;;;;;;1999.90;999.90;;;;;;;16.99;46.98;101742.59;4825938;29;96993;-73
2021/07/22 05:02:44;;;;;;;1999.90;999.90;;;;;;;17.00;47.30;101744.38;4816134;29;96883;-73
2021/07/22 05:05:14;;;;;;;1999.90;999.90;;;;;;;16.99;47.21;101743.50;4827239;29;98157;-73
2021/07/22 05:08:15;;;;;;;1999.90;999.90;;;;;;;16.99;47.17;101737.22;4857107;28;99480;-74
2021/07/22 05:11:01;;;;;;;1999.90;999.90;;;;;;;17.00;46.68;101736.31;4856851;28;97529;-73
2021/07/22 05:13:40;;;;;;;1999.90;999.90;;;;;;;16.99;46.77;101732.75;4841168;29;97968;-73
2021/07/22 05:16:35;;;;;;;1999.90;999.90;;;;;;;16.99;46.55;101737.22;4829171;28;96813;-74
2021/07/22 05:19:15;;;;;;;1999.90;999.90;;;;;;;16.99;46.58;101731.84;4856636;28;97848;-73
2021/07/22 05:21:52;;;;;;;1999.90;999.90;;;;;;;17.00;46.43;101739.91;4857607;28;97079;-73
2021/07/22 05:24:29;;;;;;;1999.90;999.90;;;;;;;17.00;46.60;101733.63;4855877;28;97567;-73
2021/07/22 05:27:08;;;;;;;1999.90;999.90;;;;;;;17.01;46.72;101735.44;4841426;29;99420;-73
2021/07/22 05:29:44;;;;;;;1999.90;999.90;;;;;;;17.02;46.51;101735.47;4821763;29;99883;-73
2021/07/22 05:32:38;;;;;;;1999.90;999.90;;;;;;;17.02;46.67;101737.22;4839964;29;96921;-73
2021/07/22 05:35:26;;;;;;;1999.90;999.90;;;;;;;17.04;46.80;101732.78;4808239;29;97388;-73
2021/07/22 05:38:14;;;;;;;1999.90;999.90;;;;;;;17.06;47.01;101737.28;4839446;29;99424;-74
2021/07/22 05:40:42;;;;;;;1999.90;999.90;;;;;;;17.07;46.88;101732.81;4823929;29;100638;-73
2021/07/22 05:43:10;;;;;;;1999.90;999.90;;;;;;;17.08;46.80;101732.84;4824259;29;97014;-73
2021/07/22 05:45:37;;;;;;;1999.90;999.90;;;;;;;17.12;46.90;101733.75;4824327;29;97837;-73
2021/07/22 05:48:05;;;;;;;1999.90;999.90;;;;;;;17.12;46.98;101739.16;4825905;29;98015;-73
2021/07/22 05:50:33;;;;;;;1999.90;999.90;;;;;;;17.13;46.93;101732.84;4825857;29;97000;-73
2021/07/22 05:53:01;;;;;;;1999.90;999.90;;;;;;;17.15;46.99;101730.19;4826274;29;96834;-72
2021/07/22 05:55:30;;;;;;;1999.90;999.90;;;;;;;17.15;47.00;101738.25;4786869;29;1123888;-73
2021/07/22 05:57:58;;;;;;;1999.90;999.90;;;;;;;17.13;46.91;101730.16;4856389;28;98341;-74
2021/07/22 06:00:25;;;;;;;1999.90;999.90;;;;;;;17.13;47.32;101737.38;4826718;29;97675;-74
2021/07/22 06:02:53;;;;;;;1999.90;999.90;;;;;;;17.15;47.19;101747.22;4827499;29;97214;-73
2021/07/22 06:05:21;;;;;;;1999.90;999.90;;;;;;;17.16;47.18;101732.91;4857274;28;97338;-74
2021/07/22 06:07:49;;;;;;;1999.90;999.90;;;;;;;17.20;47.45;101725.78;4826175;29;101148;-73
2021/07/22 06:10:17;;;;;;;1999.90;999.90;;;;;;;17.26;47.48;101725.78;4827960;29;98789;-74
2021/07/22 06:12:46;;;;;;;1999.90;999.90;;;;;;;17.29;47.52;101731.22;4827524;29;97119;-74
2021/07/22 06:15:14;;;;;;;1999.90;999.90;;;;;;;17.30;47.07;101724.94;4827821;29;97266;-73
2021/07/22 06:17:43;;;;;;;1999.90;999.90;;;;;;;17.36;47.09;101727.69;4826180;29;99671;-73
2021/07/22 06:20:11;;;;;;;1999.90;999.90;;;;;;;17.38;46.90;101721.50;4826336;29;97293;-73
2021/07/22 06:22:40;;;;;;;1999.90;999.90;;;;;;;17.42;47.01;101730.47;4826460;29;97507;-73
2021/07/22 06:25:09;;;;;;;1999.90;999.90;;;;;;;17.45;46.70;101734.09;4826021;29;97191;-73
2021/07/22 06:27:37;;;;;;;1999.90;999.90;;;;;;;17.47;46.85;101729.63;4827110;29;97608;-73
2021/07/22 06:30:07;;;;;;;1999.90;999.90;;;;;;;17.49;46.78;101733.19;4825292;29;97987;-73
2021/07/22 06:32:36;;;;;;;1999.90;999.90;;;;;;;17.53;46.65;101740.41;4824466;29;98138;-73
2021/07/22 06:35:05;;;;;;;1999.90;999.90;;;;;;;17.54;46.53;101738.63;4809245;29;98943;-73
2021/07/22 06:37:43;;;;;;;1999.90;999.90;;;;;;;17.55;46.35;101738.66;4856827;28;100596;-73
2021/07/22 06:40:12;;;;;;;1999.90;999.90;;;;;;;17.58;46.06;101740.47;4841110;29;97778;-73
2021/07/22 06:42:40;;;;;;;1999.90;999.90;;;;;;;17.59;46.16;101736.88;4826868;29;96806;-73
2021/07/22 06:45:10;;;;;;;1999.90;999.90;;;;;;;17.59;46.02;101743.16;4826045;29;97238;-73
2021/07/22 06:47:38;;;;;;;1999.90;999.90;;;;;;;17.60;46.01;101738.69;4823547;29;97626;-73
2021/07/22 06:50:08;;;;;;;1999.90;999.90;;;;;;;17.60;46.06;101736.88;4821378;29;97810;-73
2021/07/22 06:52:37;;;;;;;1999.90;999.90;;;;;;;17.60;45.91;101734.19;4821697;29;99364;-73
2021/07/22 06:55:06;;;;;;;1999.90;999.90;;;;;;;17.62;45.83;101727.03;4824656;29;96994;-74
2021/07/22 06:57:34;;;;;;;1999.90;999.90;;;;;;;17.65;45.79;101731.53;4824292;29;98044;-74
2021/07/22 07:00:04;;;;;;;1999.90;999.90;;;;;;;17.67;45.66;101732.47;4824666;29;98252;-74
2021/07/22 07:02:34;;;;;;;1999.90;999.90;;;;;;;17.67;45.71;101733.38;4832361;28;96893;-73
2021/07/22 07:05:01;;;;;;;1999.90;999.90;;;;;;;17.68;45.76;101736.94;4826645;29;97410;-74
2021/07/22 07:07:29;;;;;;;1999.90;999.90;;;;;;;17.69;45.79;101733.38;4824435;29;101161;-74
2021/07/22 07:09:57;;;;;;;1999.90;999.90;;;;;;;17.70;45.89;101730.69;4855443;28;97675;-73
2021/07/22 07:12:25;;;;;;;1999.90;999.90;;;;;;;17.69;45.81;101731.56;4823835;29;96996;-73
2021/07/22 07:14:52;;;;;;;1999.90;999.90;;;;;;;17.71;45.75;101735.16;4824663;29;98127;-73
2021/07/22 07:17:20;;;;;;;1999.90;999.90;;;;;;;17.73;45.85;101732.50;4826329;29;97581;-73
2021/07/22 07:19:50;;;;;;;1999.90;999.90;;;;;;;17.71;45.58;101732.47;4855525;28;98441;-73
2021/07/22 07:22:18;;;;;;;1999.90;999.90;;;;;;;17.70;46.19;101730.69;4840144;29;97412;-73
2021/07/22 07:24:46;;;;;;;1999.90;999.90;;;;;;;17.66;46.03;101731.56;4823567;29;96882;-73
2021/07/22 07:27:14;;;;;;;1999.90;999.90;;;;;;;17.62;46.00;101737.78;4818343;29;97930;-72
2021/07/22 07:29:45;;;;;;;1999.90;999.90;;;;;;;17.63;45.93;101736.91;4822797;29;99184;-73
2021/07/22 07:32:13;;;;;;;1999.90;999.90;;;;;;;17.63;45.84;101738.69;4824343;29;97027;-73
2021/07/22 07:34:41;;;;;;;1999.90;999.90;;;;;;;17.65;45.98;101736.94;4823627;29;97651;-73
2021/07/22 07:37:10;;;;;;;1999.90;999.90;;;;;;;17.67;45.75;101738.75;4819427;29;98297;-73
2021/07/22 07:39:38;;;;;;;1999.90;999.90;;;;;;;17.70;45.60;101729.78;4810647;29;99291;-71
2021/07/22 07:42:06;;;;;;;1999.90;999.90;;;;;;;17.73;45.38;101727.13;4859004;28;97906;-72
2021/07/22 07:44:34;;;;;;;1999.90;999.90;;;;;;;17.76;45.53;101729.81;4829172;29;97025;-73
2021/07/22 07:47:01;;;;;;;1999.90;999.90;;;;;;;17.77;45.41;101732.53;4827255;29;97704;-73
2021/07/22 07:49:29;;;;;;;1999.90;999.90;;;;;;;17.80;45.30;101734.34;4825932;29;98000;-72
2021/07/22 07:51:57;;;;;;;1999.90;999.90;;;;;;;17.83;45.12;101728.97;4815903;29;97028;-72
2021/07/22 07:54:26;;;;;;;1999.90;999.90;;;;;;;17.82;45.01;101725.38;4827640;29;96926;-73
2021/07/22 07:56:54;;;;;;;1999.90;999.90;;;;;;;17.84;45.06;101728.97;4828310;29;97758;-72
2021/07/22 07:59:21;;;;;;;1999.90;999.90;;;;;;;17.85;45.10;101733.50;4828075;29;99430;-73
2021/07/22 08:01:49;;;;;;;1999.90;999.90;;;;;;;17.89;45.06;101727.19;4827189;29;98005;-72
2021/07/22 08:04:17;;;;;;;1999.90;999.90;;;;;;;17.92;44.88;101726.34;4831905;28;97065;-72
2021/07/22 08:06:45;;;;;;;1999.90;999.90;;;;;;;17.92;44.91;101732.63;4842536;29;99264;-74
2021/07/22 08:09:13;;;;;;;1999.90;999.90;;;;;;;17.91;44.62;101729.94;4825558;29;101149;-74
2021/07/22 08:11:42;;;;;;;1999.90;999.90;;;;;;;17.91;44.93;101727.25;4859580;28;96759;-75
2021/07/22 08:14:09;;;;;;;1999.90;999.90;;;;;;;17.93;44.82;101722.72;4827481;29;96896;-74
2021/07/22 08:16:37;;;;;;;1999.90;999.90;;;;;;;17.94;44.92;101733.53;4827328;29;97826;-74
2021/07/22 08:19:05;;;;;;;1999.90;999.90;;;;;;;17.97;44.78;101729.94;4826251;29;98399;-73
2021/07/22 08:21:33;;;;;;;1999.90;999.90;;;;;;;17.98;44.74;101721.88;4824769;29;97070;-74
2021/07/22 08:24:01;;;;;;;1999.90;999.90;;;;;;;17.97;44.94;101725.47;4825563;29;96930;-73
2021/07/22 08:26:28;;;;;;;1999.90;999.90;;;;;;;17.95;44.85;101727.25;4824581;29;98088;-74
2021/07/22 08:28:58;;;;;;;1999.90;999.90;;;;;;;17.91;45.19;101730.81;4826072;29;99121;-73
2021/07/22 08:31:26;;;;;;;1999.90;999.90;;;;;;;17.92;45.09;101726.34;4827310;29;96903;-73
2021/07/22 08:33:54;;;;;;;1999.90;999.90;;;;;;;17.91;45.16;101721.84;4827543;29;97329;-73
2021/07/22 08:36:23;;;;;;;1999.90;999.90;;;;;;;17.94;45.12;101724.56;4826270;29;100113;-73
2021/07/22 08:38:50;;;;;;;1999.90;999.90;;;;;;;17.94;45.24;101719.16;4828256;29;97624;-73
2021/07/22 08:41:18;;;;;;;1999.90;999.90;;;;;;;17.94;45.27;101714.69;4842832;29;96883;-73
2021/07/22 08:43:47;;;;;;;1999.90;999.90;;;;;;;17.96;44.94;101712.91;4828638;29;97526;-73
2021/07/22 08:46:16;;;;;;;1999.90;999.90;;;;;;;17.99;45.22;101718.31;4826172;29;99234;-73
2021/07/22 08:48:44;;;;;;;1999.90;999.90;;;;;;;18.03;44.84;101720.13;4821805;29;99324;-71
2021/07/22 08:51:12;;;;;;;1999.90;999.90;;;;;;;18.06;44.80;101719.25;4826678;29;98940;-75
2021/07/22 08:53:41;;;;;;;1999.90;999.90;;;;;;;18.08;44.98;101716.56;4828579;29;97000;-74
2021/07/22 08:56:09;;;;;;;1999.90;999.90;;;;;;;18.08;44.93;101727.34;4826226;29;98413;-74
2021/07/22 08:58:39;;;;;;;1999.90;999.90;;;;;;;18.08;44.76;101727.34;4824857;29;97626;-73
2021/07/22 09:01:08;;;;;;;1999.90;999.90;;;;;;;18.09;44.67;101726.47;4843688;29;97373;-77
2021/07/22 09:03:37;;;;;;;1999.90;999.90;;;;;;;18.09;44.58;101716.59;4858704;28;97141;-73
2021/07/22 09:06:25;;;;;;;1999.90;999.90;;;;;;;18.09;44.81;101719.28;4823333;29;99165;-74
2021/07/22 09:08:55;;;;;;;1999.90;999.90;;;;;;;18.08;44.66;101721.94;4826733;29;99248;-76
2021/07/22 09:11:28;;;;;;;1999.90;999.90;;;;;;;18.05;44.78;101722.84;4822431;29;97738;-76
2021/07/22 09:14:16;;;;;;;1999.90;999.90;;;;;;;18.08;44.52;101719.25;4826041;29;97144;-75
2021/07/22 09:16:44;;;;;;;1999.90;999.90;;;;;;;18.08;44.78;101716.56;4826489;29;97829;-75
2021/07/22 09:19:31;;;;;;;1999.90;999.90;;;;;;;18.08;44.86;101713.88;4811658;29;98978;-76
2021/07/22 09:21:59;;;;;;;1999.90;999.90;;;;;;;18.10;44.80;101714.78;4827207;29;97373;-75
2021/07/22 09:24:28;;;;;;;1999.90;999.90;;;;;;;18.10;44.56;101718.38;4826450;29;97496;-75
2021/07/22 09:26:56;;;;;;;1999.90;999.90;;;;;;;18.11;44.69;101716.59;4826121;29;97652;-73
2021/07/22 09:29:24;;;;;;;1999.90;999.90;;;;;;;18.09;44.82;101716.59;4858188;28;97662;-72
2021/07/22 09:32:04;;;;;;;1999.90;999.90;;;;;;;18.06;44.63;101710.31;4826880;29;97623;-71
2021/07/22 09:34:33;;;;;;;1999.90;999.90;;;;;;;18.07;44.75;101713.00;4827797;29;97069;-71
2021/07/22 09:37:08;;;;;;;1999.90;999.90;;;;;;;18.08;44.72;101711.19;4826062;29;97776;-71
2021/07/22 09:39:37;;;;;;;1999.90;999.90;;;;;;;18.10;44.49;101714.78;4827439;29;98728;-72
2021/07/22 09:42:06;;;;;;;1999.90;999.90;;;;;;;18.12;44.50;101713.91;4824484;29;97051;-71
2021/07/22 09:44:35;;;;;;;1999.90;999.90;;;;;;;18.14;44.27;101716.59;4853836;28;97355;-72
2021/07/22 09:47:04;;;;;;;1999.90;999.90;;;;;;;18.15;44.38;101721.13;4824111;29;98059;-71
2021/07/22 09:49:36;;;;;;;1999.90;999.90;;;;;;;18.16;44.21;101707.66;4853779;28;98062;-73
2021/07/22 09:52:10;;;;;;;1999.90;999.90;;;;;;;18.18;44.30;101713.03;4853601;28;96909;-73
2021/07/22 09:54:39;;;;;;;1999.90;999.90;;;;;;;18.22;43.92;101705.00;4823118;29;98138;-74
2021/07/22 09:57:15;;;;;;;1999.90;999.90;;;;;;;18.24;44.01;101702.31;4854622;28;100481;-74
2021/07/22 09:59:44;;;;;;;1999.90;999.90;;;;;;;18.28;44.20;101704.09;4819000;29;98621;-74
2021/07/22 10:02:19;;;;;;;1999.90;999.90;;;;;;;18.28;44.13;101706.78;4826760;29;97178;-74
2021/07/22 10:04:52;;;;;;;1999.90;999.90;;;;;;;18.30;43.90;101705.91;4857737;28;96844;-75
2021/07/22 10:07:22;;;;;;;1999.90;999.90;;;;;;;18.33;44.03;101708.59;4826457;29;100455;-74
2021/07/22 10:09:52;;;;;;;1999.90;999.90;;;;;;;18.38;43.72;101697.84;4824728;29;98770;-74
2021/07/22 10:12:21;;;;;;;1999.90;999.90;;;;;;;18.41;43.57;101703.25;4826870;29;97890;-74
2021/07/22 10:14:53;;;;;;;1999.90;999.90;;;;;;;18.44;43.55;101701.44;4827066;29;96971;-74
2021/07/22 10:17:25;;;;;;;1999.90;999.90;;;;;;;18.45;43.52;101700.56;4826651;29;98038;-75
2021/07/22 10:19:56;;;;;;;1999.90;999.90;;;;;;;18.50;43.76;101688.00;4827848;29;98883;-74
2021/07/22 10:22:24;;;;;;;1999.90;999.90;;;;;;;18.52;43.43;101688.00;4840427;29;97249;-74
2021/07/22 10:24:54;;;;;;;1999.90;999.90;;;;;;;18.56;43.46;101687.13;4827823;29;97029;-74
2021/07/22 10:27:23;;;;;;;1999.90;999.90;;;;;;;18.58;43.74;101688.03;4825143;29;97838;-73
2021/07/22 10:29:51;;;;;;;1999.90;999.90;;;;;;;18.56;43.51;101684.44;4854483;28;98197;-73
2021/07/22 10:32:20;;;;;;;1999.90;999.90;;;;;;;18.55;43.58;101682.66;4826343;29;97190;-72
2021/07/22 10:34:48;;;;;;;1999.90;999.90;;;;;;;18.52;43.74;101682.63;4827242;29;97378;-72
2021/07/22 10:37:18;;;;;;;1999.90;999.90;;;;;;;18.53;43.41;101679.91;4847607;28;97906;-73
2021/07/22 10:40:08;;;;;;;1999.90;999.90;;;;;;;18.56;43.30;101676.34;4854918;28;99446;-73
2021/07/22 10:42:41;;;;;;;1999.90;999.90;;;;;;;18.58;43.50;101677.25;4810388;29;97400;-72
2021/07/22 10:45:27;;;;;;;1999.90;999.90;;;;;;;18.56;43.01;101674.56;4825453;29;97532;-74
2021/07/22 10:48:06;;;;;;;1999.90;999.90;;;;;;;18.60;43.03;101680.84;4856851;28;100957;-74
2021/07/22 10:50:59;;;;;;;1999.90;999.90;;;;;;;18.66;42.50;101676.34;4827005;29;100231;-74
2021/07/22 10:53:51;;;;;;;1999.90;999.90;;;;;;;18.67;42.59;101666.47;4826788;29;96797;-74
2021/07/22 10:56:42;;;;;;;1999.90;999.90;;;;;;;18.67;42.03;101669.19;4827192;29;96895;-74
2021/07/22 10:59:10;;;;;;;1999.90;999.90;;;;;;;18.67;41.90;101662.00;4841495;29;98961;-74
2021/07/22 11:01:57;;;;;;;1999.90;999.90;;;;;;;18.69;41.69;101657.53;4826681;29;98581;-74
2021/07/22 11:04:43;;;;;;;1999.90;999.90;;;;;;;18.71;41.99;101665.63;4817619;29;97795;-74
2021/07/22 11:07:25;;;;;;;1999.90;999.90;;;;;;;18.71;41.42;101655.75;4811024;29;97887;-74
2021/07/22 11:10:15;;;;;;;1999.90;999.90;;;;;;;18.71;41.75;101660.25;4826646;29;98105;-74
2021/07/22 11:12:48;;;;;;;1999.90;999.90;;;;;;;18.75;41.34;101654.84;4811871;29;99812;-75